Nearby METAR Reports

 

KRNT - Renton, Washington, USA
Distance from station: WNW 10mi, 17km
Updated: Sun, 24-Sep-2017 9:53am PDT
Clear
Clear
 Wind from calm
Wind: Calm
Temperature: 55°F , 13°C
Dew Point: 50°F , 10°C
Humidity: 82%
Barometer: 30.16 inHg , 1021.3 hPa
Clouds: Clear
Visibility: 10 miles , 16 km
2017/09/24 16:53 KRNT 241653Z 00000KT 10SM CLR 13/10 A3016 RMK AO2 SLP216 T01330100
KSEA - Seattle/Metro, Washington, USA
Distance from station: W 14mi, 23km
Updated: Sun, 24-Sep-2017 9:53am PDT
Mostly cloudy
Mostly cloudy
 Wind from calm
Wind: Calm
Temperature: 57°F , 14°C
Dew Point: 52°F , 11°C
Humidity: 82%
Barometer: 30.16 inHg , 1021.3 hPa
Clouds: Mostly cloudy
Visibility: 10 miles , 16 km
Cloud details: Partly cloudy 12000 ft
Mostly cloudy 20000 ft
2017/09/24 16:53 KSEA 241653Z 00000KT 10SM SCT120 BKN200 14/11 A3016 RMK AO2 SLP218 T01390106
 
KBFI - Seattle/Boeing, Washington, USA
Distance from station: WNW 16mi, 26km
Updated: Sun, 24-Sep-2017 9:53am PDT
Mostly cloudy
Mostly cloudy
 Wind from calm
Wind: Calm
Temperature: 57°F , 14°C
Dew Point: 52°F , 11°C
Humidity: 82%
Barometer: 30.16 inHg , 1021.3 hPa
Clouds: Mostly cloudy
Visibility: 10 miles , 16 km
Cloud details: Mostly cloudy 25000 ft
2017/09/24 16:53 KBFI 241653Z 00000KT 10SM BKN250 14/11 A3016 RMK AO2 SLP211 T01440111
KPLU - Puyallup/Thun, Washington, USA
Distance from station: SSW 27mi, 43km
Updated: Sun, 24-Sep-2017 10:15am PDT
Clear
Clear
 Wind from calm
Wind: Calm
Temperature: 59°F , 15°C
Dew Point: 50°F , 10°C
Humidity: 72%
Barometer: 30.16 inHg , 1021.3 hPa
Clouds: Clear
Visibility: 10 miles , 16 km
2017/09/24 17:15 KPLU 241715Z AUTO 00000KT 10SM CLR 15/10 A3016 RMK AO2
 
KTIW - Tacoma, Washington, USA
Distance from station: WSW 29mi, 47km
Updated: Sun, 24-Sep-2017 9:53am PDT
Partly cloudy
Partly cloudy
 Wind from calm
Wind: Calm
Temperature: 52°F , 11°C
Dew Point: 50°F , 10°C
Humidity: 94%
Barometer: 30.17 inHg , 1021.7 hPa
Clouds: Partly cloudy
Visibility: 10 miles , 16 km
Cloud details: Few Clouds 400 ft
Partly cloudy 1100 ft
2017/09/24 16:53 KTIW 241653Z 00000KT 10SM FEW004 SCT011 11/10 A3017 RMK AO2 SLP216 T01110100
KTCM - Tacoma/Mc Chord, Washington, USA
Distance from station: SW 31mi, 50km
Updated: Sun, 24-Sep-2017 9:58am PDT
Mostly cloudy
Mostly cloudy
 Wind from calm
Wind: Calm
Temperature: 54°F , 12°C
Dew Point: 54°F , 12°C
Humidity: 100%
Barometer: 30.16 inHg , 1021.3 hPa
Clouds: Mostly cloudy
Visibility: 10 miles , 16 km
Cloud details: Mostly cloudy 17000 ft
2017/09/24 16:58 KTCM 241658Z AUTO 00000KT 10SM BKN170 12/12 A3016 RMK AO2 SLP217 T01240115 $
 
KPAE - Everett, Washington, USA
Distance from station: NNW 35mi, 56km
Updated: Sun, 24-Sep-2017 9:53am PDT
Partly cloudy
Partly cloudy
 Wind from NE
Wind: NE 3 mph , 6 km/h
Temperature: 57°F , 14°C
Dew Point: 52°F , 11°C
Humidity: 82%
Barometer: 30.16 inHg , 1021.3 hPa
Clouds: Partly cloudy
Visibility: 10 miles , 16 km
Cloud details: Few Clouds 400 ft
Partly cloudy 5000 ft
2017/09/24 16:53 KPAE 241653Z 04003KT 10SM FEW004 SCT050 14/11 A3016 RMK AO2 SLP213 T01390106
KPWT - Bremerton Ntnl, Washington, USA
Distance from station: W 35mi, 56km
Updated: Sun, 24-Sep-2017 9:56am PDT
Clear
Clear
 Wind from calm
Wind: Calm
Temperature: 55°F , 13°C
Dew Point: 50°F , 10°C
Humidity: 82%
Clouds: Clear
Visibility: 10 miles , 16 km
2017/09/24 16:56 KPWT 241656Z AUTO 00000KT 10SM CLR 13/10 RMK AO2 SLPNO T01330100 $
 
KGRF - Fort Lewis/Gray, Washington, USA
Distance from station: SW 37mi, 59km
Updated: Sun, 24-Sep-2017 9:58am PDT
Few Clouds
Few Clouds
 Wind from SSE
Wind: SSE 3 mph , 6 km/h
Temperature: 55°F , 13°C
Dew Point: 52°F , 11°C
Humidity: 88%
Barometer: 30.15 inHg , 1021 hPa
Clouds: Few Clouds
Visibility: 10 miles , 16 km
Cloud details: Few Clouds 17000 ft
2017/09/24 16:58 KGRF 241658Z AUTO 15003KT 10SM FEW170 13/11 A3015 RMK AO2 SLP214 T01270111